Algoma Discovery — CFK9796 — position and weather

sailwx.info

Track history (hours):
 
Tides and Currents Weather Stations Pressure Air Temp Water Temp Dewpoint Dewpoint Depression Visibility Wind Speed Wind Dir Waves Ship Positions

Algoma Discovery

Last reported at 2017-Nov-17 17:44 UTC. Time now 2017-Nov-20 15:22 UTC.
Position N 45°12' W 074°18'.

Length 223 m; draft 7.5 m.

Type: Cargo ship. MMSI: 316018477.

Date/timePositionNaut miles runAvg speedWind from/ knotsBaromVisibWave heightAir tempDewpointWater temp
2017-Nov-17 17:44N 45°12' W 074°18'411.3
2017-Nov-17 17:22N 45°14' W 074°13'4 9.5
2017-Nov-17 17:00N 45°14' W 074°08'4 8.0
2017-Nov-17 16:30N 45°13' W 074°02'4 8.7
2017-Nov-17 15:59N 45°16' W 073°57'2 5.1
2017-Nov-17 15:30N 45°18' W 073°56'1 1.2
2017-Nov-17 15:00N 45°19' W 073°55'0 0.7
2017-Nov-17 14:30N 45°19' W 073°55'1 2.0
2017-Nov-17 14:00N 45°20' W 073°54'4 7.6
2017-Nov-17 13:30N 45°22' W 073°50'4 8.7
2017-Nov-17 13:00N 45°24' W 073°44'3 6.7
2017-Nov-17 12:30N 45°25' W 073°40'3 5.1
2017-Nov-17 12:00N 45°24' W 073°36'2 2.6
2017-Nov-17 11:25N 45°24' W 073°34'1 1.6
2017-Nov-17 11:00N 45°24' W 073°33'1 2.3
2017-Nov-17 10:30N 45°25' W 073°31'2 5.0
2017-Nov-17 10:01N 45°27' W 073°30'3 2.8
2017-Nov-17 08:52N 45°30' W 073°31'2 3.4
2017-Nov-17 08:19N 45°32' W 073°32'  
Track history (hours):
 
Tides and Currents Weather Stations Pressure Air Temp Water Temp Dewpoint Dewpoint Depression Visibility Wind Speed Wind Dir Waves Ship Positions

Algoma Discovery

Last reported at 2017-Nov-17 17:44 UTC. Time now 2017-Nov-20 15:22 UTC.
Position N 45°12' W 074°18'.

Length 223 m; draft 7.5 m.

Type: Cargo ship. MMSI: 316018477.

Date/timePositionNaut miles runAvg speedWind from/ knotsBaromVisibWave heightAir tempDewpointWater temp
2017-Nov-17 17:44N 45°12' W 074°18'411.3
2017-Nov-17 17:22N 45°14' W 074°13'4 9.5
2017-Nov-17 17:00N 45°14' W 074°08'4 8.0
2017-Nov-17 16:30N 45°13' W 074°02'4 8.7
2017-Nov-17 15:59N 45°16' W 073°57'2 5.1
2017-Nov-17 15:30N 45°18' W 073°56'1 1.2
2017-Nov-17 15:00N 45°19' W 073°55'0 0.7
2017-Nov-17 14:30N 45°19' W 073°55'1 2.0
2017-Nov-17 14:00N 45°20' W 073°54'4 7.6
2017-Nov-17 13:30N 45°22' W 073°50'4 8.7
2017-Nov-17 13:00N 45°24' W 073°44'3 6.7
2017-Nov-17 12:30N 45°25' W 073°40'3 5.1
2017-Nov-17 12:00N 45°24' W 073°36'2 2.6
2017-Nov-17 11:25N 45°24' W 073°34'1 1.6
2017-Nov-17 11:00N 45°24' W 073°33'1 2.3
2017-Nov-17 10:30N 45°25' W 073°31'2 5.0
2017-Nov-17 10:01N 45°27' W 073°30'3 2.8
2017-Nov-17 08:52N 45°30' W 073°31'2 3.4
2017-Nov-17 08:19N 45°32' W 073°32'  

Dump ship's entire track history